Time;durP1;ratioP1;P1;durP2;ratioP2;P2;SDS_P1;SDS_P2;PMS_P1;PMS_P2;Temp;Humidity;BMP_temperature;BMP_pressure;BME280_temperature;BME280_humidity;BME280_pressure;Samples;Min_cycle;Max_cycle;Signal;HPM_P1;HPM_P2
2023/08/19 00:01:52;;;;;;;15.38;13.88;;;;;;;20.81;100.00;101092.34;5060964;28;20031;-81
2023/08/19 00:04:17;;;;;;;15.15;13.75;;;;;;;20.82;100.00;101085.78;5064218;28;20052;-81
2023/08/19 00:06:43;;;;;;;15.93;14.43;;;;;;;20.87;100.00;101085.81;5067541;28;20439;-81
2023/08/19 00:09:09;;;;;;;15.73;14.23;;;;;;;20.84;100.00;101080.84;5065903;28;20056;-81
2023/08/19 00:11:35;;;;;;;14.88;13.63;;;;;;;20.88;100.00;101084.72;5064735;28;20086;-81
2023/08/19 00:14:01;;;;;;;14.95;13.63;;;;;;;20.88;100.00;101090.19;5067829;28;20088;-81
2023/08/19 00:16:26;;;;;;;15.95;14.35;;;;;;;20.84;100.00;101087.16;5066705;28;20139;-81
2023/08/19 00:18:51;;;;;;;15.30;13.90;;;;;;;20.82;100.00;101080.31;5065440;28;20139;-81
2023/08/19 00:21:17;;;;;;;16.58;14.98;;;;;;;20.84;100.00;101089.06;5073744;28;20052;-81
2023/08/19 00:23:42;;;;;;;15.82;14.18;;;;;;;20.80;100.00;101082.47;5066131;28;20036;-81
2023/08/19 00:26:11;;;;;;;16.25;14.75;;;;;;;20.78;100.00;101084.66;5063388;28;20028;-81
2023/08/19 00:28:36;;;;;;;16.08;14.45;;;;;;;20.80;100.00;101082.47;5067639;28;20040;-80
2023/08/19 00:31:01;;;;;;;16.38;14.82;;;;;;;20.75;100.00;101092.28;5064085;28;20704;-81
2023/08/19 00:33:27;;;;;;;16.52;14.80;;;;;;;20.70;100.00;101078.50;5066869;28;20389;-81
2023/08/19 00:35:52;;;;;;;15.50;14.00;;;;;;;20.64;100.00;101079.56;5064202;28;20051;-80
2023/08/19 00:38:18;;;;;;;14.05;12.65;;;;;;;20.62;100.00;101080.91;5066161;28;20039;-81
2023/08/19 00:40:43;;;;;;;15.38;13.82;;;;;;;20.58;100.00;101075.94;5066332;28;20021;-81
2023/08/19 00:43:08;;;;;;;14.80;13.38;;;;;;;20.55;100.00;101081.13;5067781;28;20044;-81
2023/08/19 00:45:37;;;;;;;16.08;14.48;;;;;;;20.51;100.00;101079.97;5066313;28;20411;-81
2023/08/19 00:48:03;;;;;;;15.80;14.23;;;;;;;20.51;100.00;101077.22;5048538;28;20433;-81
2023/08/19 00:50:29;;;;;;;16.30;14.65;;;;;;;20.42;100.00;101083.19;5052288;28;20032;-82
2023/08/19 00:52:54;;;;;;;16.90;15.23;;;;;;;;;;5051190;28;20499;-81
2023/08/19 00:55:19;;;;;;;16.10;14.53;;;;;;;20.33;100.00;101081.97;5066426;28;20039;-81
2023/08/19 00:57:45;;;;;;;17.23;15.52;;;;;;;20.32;100.00;101085.78;5071990;28;20031;-81
2023/08/19 01:00:10;;;;;;;16.63;15.10;;;;;;;;;;5045773;28;21670;-80
2023/08/19 01:02:36;;;;;;;17.83;16.10;;;;;;;20.28;100.00;101087.41;5070235;28;20051;-82
2023/08/19 01:05:03;;;;;;;17.13;15.43;;;;;;;20.21;100.00;101087.59;5069749;28;20107;-80
2023/08/19 01:07:46;;;;;;;17.42;15.73;;;;;;;20.18;100.00;101096.31;5068896;28;20787;-80
2023/08/19 01:10:35;;;;;;;16.90;15.27;;;;;;;20.14;100.00;101092.44;5058393;28;20151;-80
2023/08/19 01:13:17;;;;;;;17.05;15.45;;;;;;;20.11;100.00;101091.06;5035247;28;20820;-80
2023/08/19 01:15:52;;;;;;;18.50;16.70;;;;;;;20.09;100.00;101090.47;5049938;28;20412;-80
2023/08/19 01:18:18;;;;;;;17.45;15.63;;;;;;;20.08;100.00;101090.72;5068750;28;20036;-80
2023/08/19 01:20:43;;;;;;;16.85;15.30;;;;;;;20.07;100.00;101092.63;5061129;28;20025;-81
2023/08/19 01:23:16;;;;;;;17.17;14.82;;;;;;;20.09;100.00;101089.63;5035305;28;20041;-81
2023/08/19 01:25:42;;;;;;;16.98;15.38;;;;;;;20.07;100.00;101087.19;5045579;28;20481;-81
2023/08/19 01:28:07;;;;;;;18.45;16.48;;;;;;;20.05;100.00;101080.28;5052573;28;20028;-81
2023/08/19 01:30:33;;;;;;;16.92;15.32;;;;;;;20.04;100.00;101076.75;5070320;28;20139;-81
2023/08/19 01:32:59;;;;;;;15.48;13.90;;;;;;;20.02;100.00;101078.91;5070764;28;20024;-81
2023/08/19 01:35:25;;;;;;;16.33;14.63;;;;;;;20.05;100.00;101077.56;5070302;28;20082;-81
2023/08/19 01:38:07;;;;;;;15.55;14.13;;;;;;;20.06;100.00;101071.00;5051357;28;20480;-81
2023/08/19 01:40:32;;;;;;;15.65;14.05;;;;;;;20.08;100.00;101072.44;5050838;28;20032;-80
2023/08/19 01:42:59;;;;;;;15.15;13.73;;;;;;;20.11;100.00;101071.94;5036741;28;20031;-80
2023/08/19 01:45:24;;;;;;;15.77;14.10;;;;;;;20.15;100.00;101074.97;5046549;28;20541;-80
2023/08/19 01:47:53;;;;;;;14.70;13.30;;;;;;;20.20;100.00;101066.81;5083068;28;20025;-80
2023/08/19 01:50:19;;;;;;;14.50;13.05;;;;;;;20.23;100.00;101068.22;5081368;28;20118;-80
2023/08/19 01:52:44;;;;;;;14.98;13.48;;;;;;;20.28;100.00;101071.00;5065829;28;20544;-80
2023/08/19 01:55:10;;;;;;;14.98;13.57;;;;;;;20.31;100.00;101075.94;5065083;28;20033;-80
2023/08/19 01:57:35;;;;;;;14.85;13.35;;;;;;;20.38;100.00;101071.09;5056216;28;20029;-81
2023/08/19 02:00:00;;;;;;;13.63;12.43;;;;;;;20.43;100.00;101073.06;5062214;28;20036;-80
2023/08/19 02:02:26;;;;;;;13.77;12.57;;;;;;;20.48;100.00;101075.00;5067533;28;20087;-81
2023/08/19 02:04:51;;;;;;;14.32;13.02;;;;;;;20.52;100.00;101071.53;5066239;28;20036;-81
2023/08/19 02:07:17;;;;;;;14.52;13.23;;;;;;;20.51;100.00;101069.88;5066466;28;20024;-81
2023/08/19 02:09:43;;;;;;;14.57;12.98;;;;;;;20.55;100.00;101072.91;5068270;28;20044;-80
2023/08/19 02:12:21;;;;;;;13.50;12.30;;;;;;;20.57;100.00;101073.47;5069959;28;20082;-81
2023/08/19 02:14:48;;;;;;;13.93;12.63;;;;;;;20.57;100.00;101068.00;5061654;28;20029;-80
2023/08/19 02:17:14;;;;;;;14.70;13.02;;;;;;;20.55;100.00;101064.69;5067787;28;20044;-81
2023/08/19 02:19:39;;;;;;;13.38;12.15;;;;;;;20.55;100.00;101071.00;5062160;28;20033;-80
2023/08/19 02:22:06;;;;;;;12.95;11.68;;;;;;;20.56;100.00;101063.63;5063614;28;20400;-81
2023/08/19 02:24:31;;;;;;;13.98;12.60;;;;;;;20.56;100.00;101066.34;5066496;28;20037;-80
2023/08/19 02:26:56;;;;;;;14.00;12.50;;;;;;;20.56;100.00;101063.63;5061202;28;20395;-80
2023/08/19 02:29:22;;;;;;;12.43;11.15;;;;;;;20.57;100.00;101062.53;5065210;28;20033;-80
2023/08/19 02:31:48;;;;;;;13.90;11.95;;;;;;;20.58;100.00;101058.72;5048286;28;20021;-81
2023/08/19 02:34:14;;;;;;;13.65;12.25;;;;;;;20.56;100.00;101042.56;5059165;28;20029;-80
2023/08/19 02:36:39;;;;;;;13.35;12.07;;;;;;;20.56;100.00;101039.00;5067989;28;20020;-81
2023/08/19 02:39:08;;;;;;;12.80;11.50;;;;;;;20.56;100.00;101025.31;5060563;28;20086;-81
2023/08/19 02:41:33;;;;;;;17.13;12.05;;;;;;;20.52;100.00;101027.75;5068006;28;20020;-81
2023/08/19 02:43:59;;;;;;;14.85;11.30;;;;;;;20.48;100.00;101028.53;5069474;28;20028;-80
2023/08/19 02:46:24;;;;;;;13.15;11.95;;;;;;;20.45;100.00;101033.44;5067410;28;20020;-81
2023/08/19 02:48:49;;;;;;;12.30;11.15;;;;;;;20.43;100.00;101034.78;5062715;28;20032;-81
2023/08/19 02:51:15;;;;;;;13.02;11.75;;;;;;;20.39;100.00;101034.47;5068619;28;20036;-81
2023/08/19 02:53:40;;;;;;;13.63;12.20;;;;;;;20.30;100.00;101031.38;5064483;28;20021;-81
2023/08/19 02:56:06;;;;;;;13.38;11.43;;;;;;;20.29;100.00;101031.66;5067034;28;20052;-81
2023/08/19 02:58:31;;;;;;;14.90;12.07;;;;;;;20.26;100.00;101032.16;5064433;28;20090;-81
2023/08/19 03:00:57;;;;;;;12.23;11.07;;;;;;;20.23;100.00;101029.94;5064785;28;20025;-81
2023/08/19 03:03:22;;;;;;;12.60;11.25;;;;;;;20.24;100.00;101026.13;5068689;28;20060;-80
2023/08/19 03:05:48;;;;;;;13.27;11.90;;;;;;;20.21;100.00;101021.16;5062955;28;20043;-79
2023/08/19 03:08:13;;;;;;;12.50;11.20;;;;;;;20.21;100.00;101021.16;5068169;28;20029;-80
2023/08/19 03:10:39;;;;;;;12.27;10.95;;;;;;;20.22;100.00;101020.09;5063240;28;20090;-82
2023/08/19 03:13:05;;;;;;;12.05;10.82;;;;;;;20.26;100.00;101018.50;5065184;28;20025;-81
2023/08/19 03:15:31;;;;;;;14.32;11.15;;;;;;;20.25;100.00;101017.66;5065960;28;20507;-80
2023/08/19 03:17:59;;;;;;;11.95;10.70;;;;;;;20.25;100.00;101016.84;5040058;28;20482;-80
2023/08/19 03:20:24;;;;;;;11.98;10.70;;;;;;;20.22;100.00;101018.16;5068363;28;20036;-80
2023/08/19 03:22:50;;;;;;;12.70;10.63;;;;;;;20.23;100.00;101019.00;5067205;28;20029;-80
2023/08/19 03:25:15;;;;;;;12.27;11.07;;;;;;;20.22;100.00;101014.63;5064779;28;21713;-80
2023/08/19 03:27:41;;;;;;;13.82;10.38;;;;;;;20.20;100.00;101014.06;5063035;28;20032;-81
2023/08/19 03:30:07;;;;;;;11.75;10.50;;;;;;;20.13;100.00;101009.59;5068574;28;20036;-81
2023/08/19 03:32:32;;;;;;;15.43;11.50;;;;;;;20.10;100.00;101015.63;5063556;28;20033;-80
2023/08/19 03:34:57;;;;;;;11.05;9.95;;;;;;;20.10;100.00;101014.78;5061116;28;20032;-80
2023/08/19 03:37:23;;;;;;;11.07;10.05;;;;;;;20.06;100.00;101017.19;5066857;28;20021;-81
2023/08/19 03:39:49;;;;;;;11.27;10.20;;;;;;;20.01;100.00;101013.59;5063145;28;20027;-80
2023/08/19 03:42:14;;;;;;;12.10;10.38;;;;;;;19.95;100.00;101012.69;5068550;28;20029;-81
2023/08/19 03:44:39;;;;;;;12.57;10.25;;;;;;;19.91;100.00;101017.84;5057898;28;20040;-81
2023/08/19 03:47:05;;;;;;;11.40;10.30;;;;;;;19.91;100.00;101019.75;5053192;28;20031;-81
2023/08/19 03:49:30;;;;;;;11.30;10.20;;;;;;;19.91;100.00;101009.66;5068880;28;20051;-81
2023/08/19 03:51:56;;;;;;;12.50;10.60;;;;;;;19.90;100.00;101008.00;5067550;28;20899;-79
2023/08/19 03:54:22;;;;;;;11.65;10.48;;;;;;;19.88;100.00;101012.06;5064990;28;20039;-82
2023/08/19 03:56:48;;;;;;;10.50;9.50;;;;;;;19.91;100.00;101017.84;5058808;28;20037;-80
2023/08/19 03:59:13;;;;;;;11.90;10.10;;;;;;;19.90;100.00;101012.66;5065529;28;20729;-80
2023/08/19 04:01:39;;;;;;;12.30;10.25;;;;;;;19.93;100.00;101010.22;5068288;28;20465;-79
2023/08/19 04:04:06;;;;;;;13.05;10.50;;;;;;;19.98;100.00;101003.97;5067481;28;20574;-78
2023/08/19 04:06:32;;;;;;;11.70;10.05;;;;;;;20.05;100.00;100999.16;5066641;28;20031;-79
2023/08/19 04:08:57;;;;;;;13.63;10.35;;;;;;;20.08;100.00;100995.91;5063674;28;20028;-79
2023/08/19 04:11:23;;;;;;;13.75;10.00;;;;;;;20.10;100.00;100995.63;5067924;28;20024;-78
2023/08/19 04:13:48;;;;;;;11.93;9.80;;;;;;;20.12;100.00;101005.22;5067321;28;20472;-79
2023/08/19 04:16:14;;;;;;;11.63;9.15;;;;;;;20.13;100.00;101001.41;5064896;28;20025;-79
2023/08/19 04:18:39;;;;;;;12.32;9.70;;;;;;;20.19;100.00;101004.19;5067861;28;20040;-79
2023/08/19 04:21:05;;;;;;;10.52;9.15;;;;;;;20.25;99.57;101012.19;5065534;28;20074;-80
2023/08/19 04:23:31;;;;;;;10.57;9.45;;;;;;;20.32;98.84;101014.72;5068439;28;20376;-79
2023/08/19 04:25:57;;;;;;;12.38;9.52;;;;;;;20.32;98.35;101014.72;5070932;28;20033;-80
2023/08/19 04:28:22;;;;;;;11.27;9.05;;;;;;;20.37;98.19;101022.16;5068168;28;20406;-80
2023/08/19 04:30:48;;;;;;;10.93;8.50;;;;;;;20.45;97.65;101027.97;5046169;28;20033;-81
2023/08/19 04:33:14;;;;;;;13.18;9.13;;;;;;;20.49;97.42;101027.44;5068755;28;20028;-80
2023/08/19 04:35:40;;;;;;;9.98;8.75;;;;;;;20.54;97.40;101027.50;5053724;28;20051;-80
2023/08/19 04:38:05;;;;;;;11.20;9.05;;;;;;;20.63;96.34;101028.69;5069965;28;20037;-80
2023/08/19 04:40:34;;;;;;;10.52;8.32;;;;;;;20.71;95.81;101033.66;5068710;28;20461;-79
2023/08/19 04:43:07;;;;;;;10.10;8.43;;;;;;;20.79;95.03;101028.84;5070028;28;20031;-80
2023/08/19 04:45:32;;;;;;;8.88;7.97;;;;;;;20.85;94.65;101014.09;5070365;28;20028;-80
2023/08/19 04:47:58;;;;;;;10.27;8.77;;;;;;;20.89;94.15;101010.59;5070884;28;20415;-80
2023/08/19 04:50:23;;;;;;;9.98;8.40;;;;;;;20.92;94.34;101013.88;5066412;28;20108;-80
2023/08/19 04:52:50;;;;;;;10.45;8.88;;;;;;;20.96;93.77;101010.38;5065460;28;20027;-80
2023/08/19 04:55:15;;;;;;;12.48;9.07;;;;;;;20.93;93.73;101016.34;5069575;28;20048;-80
2023/08/19 04:57:42;;;;;;;11.20;8.75;;;;;;;20.98;93.51;101013.66;5070647;28;20063;-80
2023/08/19 05:00:12;;;;;;;9.18;8.32;;;;;;;20.96;93.41;101010.38;5067540;28;20029;-80
2023/08/19 05:02:37;;;;;;;10.05;7.90;;;;;;;21.02;93.03;101003.81;5068534;28;20036;-80
2023/08/19 05:05:03;;;;;;;11.77;8.73;;;;;;;21.02;92.54;101003.00;5065844;28;20040;-80
2023/08/19 05:07:29;;;;;;;13.48;8.77;;;;;;;21.01;92.52;101007.63;5067185;28;20457;-80
2023/08/19 05:09:54;;;;;;;10.07;8.48;;;;;;;20.99;92.78;101004.38;5063215;28;20027;-80
2023/08/19 05:12:19;;;;;;;12.93;8.27;;;;;;;21.08;92.56;101010.16;5062976;28;20033;-79
2023/08/19 05:14:45;;;;;;;11.25;7.68;;;;;;;21.13;92.25;101012.09;5071503;28;20017;-80
2023/08/19 05:17:14;;;;;;;11.35;8.48;;;;;;;21.16;91.59;101014.31;5069187;28;20024;-84
2023/08/19 05:19:40;;;;;;;9.25;7.72;;;;;;;21.23;91.20;101019.56;5067538;28;20527;-80
2023/08/19 05:22:05;;;;;;;8.38;7.20;;;;;;;21.27;91.53;101024.22;5073973;28;20016;-79
2023/08/19 05:24:30;;;;;;;8.30;7.25;;;;;;;21.30;91.06;101025.59;5087880;28;20104;-78
2023/08/19 05:26:56;;;;;;;9.70;7.22;;;;;;;21.33;90.78;101017.72;5067318;28;20030;-80
2023/08/19 05:29:21;;;;;;;9.02;7.38;;;;;;;21.42;90.63;101018.03;5069087;28;20311;-79
2023/08/19 05:31:46;;;;;;;9.68;6.70;;;;;;;21.46;90.09;101024.59;5064582;28;20021;-79
2023/08/19 05:34:12;;;;;;;8.00;7.10;;;;;;;21.48;89.49;101027.09;5064573;28;20032;-80
2023/08/19 05:36:37;;;;;;;11.20;6.85;;;;;;;21.52;89.33;101033.69;5071247;28;20025;-79
2023/08/19 05:39:06;;;;;;;9.35;7.13;;;;;;;21.54;89.25;101034.22;5064010;28;20035;-80
2023/08/19 05:41:34;;;;;;;7.55;6.72;;;;;;;21.53;89.39;101029.88;5062777;28;20105;-80
2023/08/19 05:43:59;;;;;;;9.30;6.45;;;;;;;21.55;89.21;101032.31;5065610;28;20120;-80
2023/08/19 05:46:25;;;;;;;9.75;6.47;;;;;;;21.56;89.21;101023.81;5065926;28;20025;-81
2023/08/19 05:48:50;;;;;;;7.47;6.78;;;;;;;21.61;88.81;101023.88;5067455;28;20386;-81
2023/08/19 05:51:16;;;;;;;8.00;6.38;;;;;;;21.66;88.48;101023.06;5069138;28;20095;-81
2023/08/19 05:53:41;;;;;;;7.85;6.78;;;;;;;21.69;88.51;101032.69;5067110;28;20061;-81
2023/08/19 05:56:07;;;;;;;8.93;6.32;;;;;;;21.71;87.86;101031.31;5068794;28;20027;-80
2023/08/19 05:58:32;;;;;;;7.93;6.60;;;;;;;21.79;88.19;101046.44;5065418;28;20619;-80
2023/08/19 06:00:58;;;;;;;7.55;6.65;;;;;;;21.96;87.31;101054.44;5070844;28;20473;-81
2023/08/19 06:03:24;;;;;;;9.27;6.70;;;;;;;21.98;86.29;101052.25;5066266;28;20118;-83
2023/08/19 06:05:49;;;;;;;7.53;6.72;;;;;;;21.96;86.57;101055.25;5061046;28;20024;-81
2023/08/19 06:08:15;;;;;;;9.65;6.95;;;;;;;22.04;86.35;101058.59;5059053;28;20037;-81
2023/08/19 06:10:43;;;;;;;8.27;6.75;;;;;;;22.07;86.12;101056.13;5065870;28;20635;-80
2023/08/19 06:13:12;;;;;;;9.95;6.15;;;;;;;22.21;85.27;101058.34;5065411;28;20476;-81
2023/08/19 06:15:37;;;;;;;8.82;6.50;;;;;;;22.24;84.67;101063.28;5065823;28;20017;-81
2023/08/19 06:18:03;;;;;;;9.20;6.80;;;;;;;22.29;84.81;101057.81;5062116;28;20040;-81
2023/08/19 06:20:28;;;;;;;8.85;6.43;;;;;;;22.33;84.07;101060.84;5062710;28;20503;-80
2023/08/19 06:22:54;;;;;;;7.63;6.13;;;;;;;22.48;84.25;101071.88;5064628;28;20096;-84
2023/08/19 06:25:19;;;;;;;9.18;6.80;;;;;;;22.50;83.36;101077.91;5064370;28;20433;-82
2023/08/19 06:27:45;;;;;;;9.75;6.57;;;;;;;22.56;82.86;101065.00;5067006;28;20350;-83
2023/08/19 06:30:12;;;;;;;9.23;6.22;;;;;;;22.61;82.87;101073.25;5066266;28;20048;-81
2023/08/19 06:32:37;;;;;;;9.40;6.45;;;;;;;22.59;82.98;101083.69;5065640;28;20051;-82
2023/08/19 06:35:03;;;;;;;7.95;5.75;;;;;;;22.71;82.19;101076.00;5063597;28;20032;-82
2023/08/19 06:37:30;;;;;;;7.93;6.32;;;;;;;22.76;82.15;101080.69;5059975;28;20063;-82
2023/08/19 06:39:57;;;;;;;9.18;6.22;;;;;;;22.83;81.79;101081.22;5059778;28;20032;-84
2023/08/19 06:42:23;;;;;;;9.90;6.50;;;;;;;22.92;80.98;101080.69;5044807;28;20033;-83
2023/08/19 06:44:49;;;;;;;10.65;6.78;;;;;;;22.92;80.98;101091.66;5045011;28;20028;-81
2023/08/19 06:47:19;;;;;;;9.27;6.10;;;;;;;23.02;80.91;101089.75;5069310;28;20031;-86
2023/08/19 06:49:45;;;;;;;7.28;5.70;;;;;;;23.13;80.76;101092.47;5040611;28;20487;-80
2023/08/19 06:52:11;;;;;;;10.90;6.22;;;;;;;23.25;79.16;101092.22;5055931;28;20024;-80
2023/08/19 06:54:37;;;;;;;9.25;6.45;;;;;;;23.28;79.55;101081.50;5067895;28;20550;-82
2023/08/19 06:57:27;;;;;;;7.90;6.53;;;;;;;23.35;78.87;101081.19;5065849;28;20059;-81
2023/08/19 06:59:54;;;;;;;8.30;6.30;;;;;;;23.38;79.23;101083.41;5045060;28;20025;-81
2023/08/19 07:02:20;;;;;;;10.55;6.65;;;;;;;23.57;78.33;101080.06;5029795;28;20742;-81
2023/08/19 07:04:45;;;;;;;6.60;5.53;;;;;;;23.60;77.70;101076.75;5039242;28;20031;-81
2023/08/19 07:07:11;;;;;;;8.23;6.25;;;;;;;23.73;77.56;101078.91;5030356;28;20031;-81
2023/08/19 07:09:36;;;;;;;9.10;5.70;;;;;;;23.85;77.14;101081.34;5024701;28;20029;-81
2023/08/19 07:12:02;;;;;;;11.00;6.28;;;;;;;23.82;76.63;101075.59;5064685;28;20020;-81
2023/08/19 07:14:29;;;;;;;7.57;6.13;;;;;;;23.86;76.75;101082.16;5059822;28;20032;-82
2023/08/19 07:17:01;;;;;;;9.85;6.20;;;;;;;23.90;76.30;101073.06;5064408;28;20037;-81
2023/08/19 07:19:30;;;;;;;6.95;5.50;;;;;;;23.95;75.62;101083.22;5064967;28;20115;-82
2023/08/19 07:21:55;;;;;;;8.27;6.00;;;;;;;24.14;75.14;101077.91;5060949;28;20031;-82
2023/08/19 07:24:21;;;;;;;6.88;5.53;;;;;;;24.12;75.04;101073.81;5044668;28;20025;-79
2023/08/19 07:26:46;;;;;;;8.48;5.40;;;;;;;24.16;74.96;101080.41;5056215;28;20032;-78
2023/08/19 07:29:12;;;;;;;9.80;5.45;;;;;;;24.12;73.61;101079.31;5059772;28;20113;-78
2023/08/19 07:31:37;;;;;;;9.27;5.28;;;;;;;24.28;74.25;101080.88;5032492;28;20062;-81
2023/08/19 07:34:03;;;;;;;10.90;5.53;;;;;;;24.32;73.31;101078.38;5039259;28;20347;-82
2023/08/19 07:36:29;;;;;;;6.72;5.40;;;;;;;24.30;73.03;101081.41;5063913;28;20411;-80
2023/08/19 07:38:54;;;;;;;9.60;5.40;;;;;;;24.22;73.89;101079.25;5057586;28;20481;-80
2023/08/19 07:41:19;;;;;;;7.80;5.43;;;;;;;24.26;73.84;101076.78;5063226;28;20024;-80
2023/08/19 07:43:46;;;;;;;7.47;5.30;;;;;;;24.24;73.15;101081.72;5065571;28;20028;-81
2023/08/19 07:46:15;;;;;;;8.02;5.80;;;;;;;24.39;72.94;101084.38;5062494;28;20033;-82
2023/08/19 07:48:41;;;;;;;6.40;5.22;;;;;;;24.38;72.83;101083.56;5062631;28;20498;-82
2023/08/19 07:51:06;;;;;;;11.10;5.43;;;;;;;24.49;72.06;101089.00;5066322;28;20025;-81
2023/08/19 07:53:31;;;;;;;6.00;5.40;;;;;;;24.60;71.58;101090.56;5049995;28;20047;-82
2023/08/19 07:55:57;;;;;;;8.93;5.32;;;;;;;24.66;71.33;101088.59;5067654;28;20016;-82
2023/08/19 07:58:22;;;;;;;10.07;5.38;;;;;;;24.85;71.22;101097.03;5061432;28;20733;-82
2023/08/19 08:00:47;;;;;;;9.43;5.57;;;;;;;24.77;70.80;101087.47;5070110;28;20073;-82
2023/08/19 08:03:13;;;;;;;8.93;5.10;;;;;;;24.76;71.96;101088.56;5050638;28;20512;-82
2023/08/19 08:05:39;;;;;;;8.38;5.45;;;;;;;25.05;70.27;101095.22;5068195;28;20025;-82
2023/08/19 08:08:05;;;;;;;8.20;5.30;;;;;;;25.05;70.38;101100.72;5068971;28;20344;-82
2023/08/19 08:10:30;;;;;;;9.07;5.55;;;;;;;25.10;69.88;101098.75;5057019;28;20488;-80
2023/08/19 08:12:55;;;;;;;7.80;4.88;;;;;;;25.17;70.01;101106.66;5066916;28;20020;-79
2023/08/19 08:15:23;;;;;;;9.32;5.72;;;;;;;25.25;69.41;101100.50;5064735;28;20119;-80
2023/08/19 08:17:51;;;;;;;7.35;5.10;;;;;;;25.42;69.72;101102.84;5064847;28;20024;-80
2023/08/19 08:20:17;;;;;;;6.78;5.25;;;;;;;25.60;68.57;101099.63;5069513;28;20037;-81
2023/08/19 08:22:42;;;;;;;8.18;5.30;;;;;;;25.70;68.38;101105.03;5065147;28;20150;-81
2023/08/19 08:25:09;;;;;;;9.70;5.32;;;;;;;25.87;67.16;101105.38;5069798;28;20419;-80
2023/08/19 08:27:35;;;;;;;7.93;5.45;;;;;;;26.07;66.45;101100.72;5064617;28;20032;-80
2023/08/19 08:30:00;;;;;;;9.77;5.10;;;;;;;26.33;66.92;101105.91;5066741;28;20033;-80
2023/08/19 08:32:26;;;;;;;7.60;4.78;;;;;;;26.45;65.36;101114.59;5064896;28;20037;-80
2023/08/19 08:34:51;;;;;;;8.23;4.85;;;;;;;26.64;64.81;101117.31;5059646;28;20020;-79
2023/08/19 08:37:16;;;;;;;7.57;5.07;;;;;;;26.60;65.26;101112.72;5068247;28;20032;-79
2023/08/19 08:39:42;;;;;;;7.20;4.90;;;;;;;26.86;64.38;101123.38;5062150;28;20029;-79
2023/08/19 08:42:08;;;;;;;9.80;4.50;;;;;;;26.91;64.02;101120.53;5073229;28;20048;-79
2023/08/19 08:44:37;;;;;;;8.85;4.80;;;;;;;27.07;64.34;101135.72;5054926;28;20480;-80
2023/08/19 08:47:02;;;;;;;8.73;4.97;;;;;;;27.12;63.25;101139.53;5085050;28;20037;-80
2023/08/19 08:49:28;;;;;;;9.00;5.20;;;;;;;27.18;63.69;101141.09;5034615;28;20039;-80
2023/08/19 08:51:54;;;;;;;8.63;4.68;;;;;;;27.45;62.55;101150.56;5049862;28;20110;-80
2023/08/19 08:54:20;;;;;;;8.13;4.65;;;;;;;27.56;62.36;101140.97;5052333;28;20714;-79
2023/08/19 08:56:45;;;;;;;7.10;5.18;;;;;;;27.58;62.54;101140.69;5073996;28;20036;-79
2023/08/19 08:59:11;;;;;;;7.50;5.07;;;;;;;27.82;61.18;101143.25;5079643;28;20032;-80
2023/08/19 09:01:36;;;;;;;8.45;4.97;;;;;;;28.15;61.03;101145.91;5057461;28;20040;-80
2023/08/19 09:04:04;;;;;;;8.10;4.78;;;;;;;28.31;59.55;101135.34;5030224;28;20037;-80
2023/08/19 09:06:29;;;;;;;9.18;5.00;;;;;;;28.29;59.68;101134.81;5008896;28;20022;-80
2023/08/19 09:09:08;;;;;;;9.52;4.50;;;;;;;28.37;59.77;101141.56;5046210;28;20048;-80
2023/08/19 09:11:36;;;;;;;9.48;4.70;;;;;;;28.88;58.52;101147.88;5044695;28;20029;-81
2023/08/19 09:14:07;;;;;;;10.32;5.15;;;;;;;29.14;56.46;101158.34;5029305;28;20026;-81
2023/08/19 09:16:33;;;;;;;8.73;5.20;;;;;;;29.23;56.29;101158.38;5046762;28;20036;-82
2023/08/19 09:18:58;;;;;;;8.13;4.68;;;;;;;29.29;56.44;101160.72;5046690;28;20025;-81
2023/08/19 09:21:24;;;;;;;5.65;4.60;;;;;;;29.52;55.12;101160.72;5046239;28;20037;-81
2023/08/19 09:23:49;;;;;;;7.55;4.38;;;;;;;29.45;55.29;101168.66;5048278;28;20029;-81
2023/08/19 09:26:19;;;;;;;8.65;4.75;;;;;;;29.62;55.21;101163.19;5046714;28;20036;-81
2023/08/19 09:28:44;;;;;;;4.97;4.30;;;;;;;29.65;55.42;101162.56;5025464;28;20044;-81
2023/08/19 09:31:20;;;;;;;7.35;4.40;;;;;;;29.78;55.36;101157.22;5047385;28;20036;-81
2023/08/19 09:33:47;;;;;;;8.80;4.93;;;;;;;29.53;54.63;101145.69;5045798;28;20078;-79
2023/08/19 09:36:12;;;;;;;6.72;4.50;;;;;;;29.48;55.55;101145.84;5041040;28;20052;-79
2023/08/19 09:38:38;;;;;;;8.23;4.13;;;;;;;29.54;55.69;101152.88;5037744;28;20469;-80
2023/08/19 09:41:06;;;;;;;7.50;4.50;;;;;;;29.55;56.13;101150.91;5048580;28;20043;-80
2023/08/19 09:43:34;;;;;;;8.75;5.15;;;;;;;29.55;55.03;101162.84;5044877;28;20021;-80
2023/08/19 09:46:00;;;;;;;8.45;4.60;;;;;;;29.51;55.31;101156.28;5049584;28;20033;-81
2023/08/19 09:48:26;;;;;;;9.63;4.88;;;;;;;29.50;55.54;101169.31;5044950;28;20043;-81
2023/08/19 09:50:51;;;;;;;9.60;4.80;;;;;;;29.35;57.03;101183.59;5047413;28;20025;-80
2023/08/19 09:53:17;;;;;;;9.18;5.03;;;;;;;28.95;58.38;101189.00;5026508;28;20088;-80
2023/08/19 09:55:46;;;;;;;6.53;4.85;;;;;;;28.98;58.41;101188.38;5044889;28;20033;-78
2023/08/19 09:58:11;;;;;;;9.18;5.13;;;;;;;28.95;58.73;101194.53;5038702;28;20380;-78
2023/08/19 10:00:37;;;;;;;9.38;5.35;;;;;;;28.71;59.27;101201.97;5048492;28;20025;-78
2023/08/19 10:03:03;;;;;;;10.50;5.15;;;;;;;28.76;59.30;101203.88;5055394;28;20036;-78
2023/08/19 10:05:29;;;;;;;6.07;4.70;;;;;;;29.00;59.38;101224.91;5045354;28;20052;-78
2023/08/19 10:08:04;;;;;;;8.88;5.45;;;;;;;29.33;57.90;101227.44;5030962;28;20384;-77
2023/08/19 10:10:30;;;;;;;7.88;5.80;;;;;;;29.02;59.01;101244.81;5048968;28;20040;-77
2023/08/19 10:12:55;;;;;;;6.95;5.13;;;;;;;28.61;60.13;101241.00;5040440;28;20469;-77
2023/08/19 10:15:26;;;;;;;8.43;5.90;;;;;;;28.53;60.73;101244.50;5065554;28;20020;-78
2023/08/19 10:17:53;;;;;;;12.32;7.10;;;;;;;27.91;64.06;101238.22;5065371;28;20025;-77
2023/08/19 10:20:20;;;;;;;8.55;6.80;;;;;;;27.78;64.19;101228.81;5042367;28;20033;-78
2023/08/19 10:22:47;;;;;;;7.07;5.63;;;;;;;28.03;64.65;101236.91;5028557;28;20021;-78
2023/08/19 10:25:13;;;;;;;10.05;7.05;;;;;;;27.57;67.31;101228.34;5044018;28;20507;-77
2023/08/19 10:27:39;;;;;;;11.02;7.50;;;;;;;27.03;69.60;101225.06;5054553;28;20033;-78
2023/08/19 10:30:22;;;;;;;11.23;7.30;;;;;;;26.70;72.40;101220.25;5063226;28;20033;-78
2023/08/19 10:32:47;;;;;;;11.73;7.78;;;;;;;26.57;73.75;101212.69;5058241;28;20021;-78
2023/08/19 10:35:13;;;;;;;11.55;7.90;;;;;;;26.55;72.59;101193.69;5067241;28;20038;-78
2023/08/19 10:37:42;;;;;;;10.02;8.07;;;;;;;26.36;79.82;101182.59;5068104;28;20029;-77
2023/08/19 10:40:11;;;;;;;10.52;8.15;;;;;;;26.26;80.93;101175.28;5059922;28;20033;-77
2023/08/19 10:42:38;;;;;;;11.82;8.57;;;;;;;26.22;80.31;101176.16;5063212;28;20028;-77
2023/08/19 10:45:13;;;;;;;11.00;8.15;;;;;;;26.18;81.80;101171.22;5062387;28;20034;-78
2023/08/19 10:47:40;;;;;;;9.45;8.30;;;;;;;26.26;81.30;101168.94;5057021;28;20445;-78
2023/08/19 10:50:06;;;;;;;10.25;8.05;;;;;;;26.23;80.63;101161.25;5062675;28;20032;-77
2023/08/19 10:52:31;;;;;;;11.93;8.18;;;;;;;26.14;82.03;101159.13;5048985;28;20163;-77
2023/08/19 10:54:58;;;;;;;9.63;8.27;;;;;;;26.36;85.92;101185.34;5065718;28;20021;-77
2023/08/19 10:57:27;;;;;;;11.90;8.48;;;;;;;26.69;81.14;101206.75;5063381;28;20286;-78
2023/08/19 10:59:59;;;;;;;12.40;8.93;;;;;;;26.90;80.29;101216.41;5062822;28;20428;-77
2023/08/19 11:02:25;;;;;;;9.38;7.60;;;;;;;26.92;74.46;101232.66;5059893;28;20049;-77
2023/08/19 11:04:51;;;;;;;11.93;7.97;;;;;;;26.92;79.57;101249.25;5030391;28;20021;-78
2023/08/19 11:07:17;;;;;;;9.90;8.25;;;;;;;26.69;78.23;101257.25;5041343;28;20033;-78
2023/08/19 11:09:44;;;;;;;12.25;8.27;;;;;;;26.65;76.94;101256.22;5045572;28;20083;-78
2023/08/19 11:12:18;;;;;;;9.32;8.18;;;;;;;26.61;76.72;101255.16;5043608;28;20021;-78
2023/08/19 11:14:50;;;;;;;13.15;8.93;;;;;;;26.40;78.08;101262.88;5027682;28;20017;-78